Terminal Aerodrome Forecast
Issued by NWS

Home | Current Version | Previous Version | Text Only | Print | Product List | Glossary On
Versions: 1 2 3 4 5 6 7 8 9 10 11 12 13 14 15 16 17 18 19 20 21 22
000
FTUS46 KSGX 201500 AAA
TAFCRQ
TAF AMD
KCRQ 201505Z 2015/2112 VRB04KT P6SM SCT012
     FM202000 27008KT P6SM SCT012
     FM210200 VRB04KT P6SM SCT010
     FM210400 VRB04KT 4SM BR OVC006=

USA.gov is the U.S. government's official web portal to all federal, state and local government web resources and services.